createdAt,value
2019-06-26T00:00:49.971Z,99.99
2019-06-26T00:01:50.214Z,99.99
2019-06-26T00:02:50.441Z,99.99
2019-06-26T00:03:50.670Z,99.99
2019-06-26T00:04:50.903Z,99.99
2019-06-26T00:05:51.133Z,99.99
2019-06-26T00:06:51.391Z,99.99
2019-06-26T00:07:51.600Z,99.99
2019-06-26T00:08:51.837Z,99.99
2019-06-26T00:09:52.066Z,99.99
2019-06-26T00:10:52.300Z,99.99
2019-06-26T00:11:52.532Z,99.99
2019-06-26T00:12:52.763Z,99.99
2019-06-26T00:13:52.996Z,99.99
2019-06-26T00:14:53.230Z,99.99
2019-06-26T00:15:53.461Z,99.99
2019-06-26T00:16:53.692Z,99.99
2019-06-26T00:17:53.924Z,99.99
2019-06-26T00:18:54.155Z,99.99
2019-06-26T00:19:54.391Z,99.99
2019-06-26T00:20:54.619Z,99.99
2019-06-26T00:21:54.854Z,99.99
2019-06-26T00:22:55.092Z,99.99
2019-06-26T00:23:55.314Z,99.99
2019-06-26T00:24:55.552Z,99.99
2019-06-26T00:25:55.778Z,99.99
2019-06-26T00:26:56.013Z,99.99
2019-06-26T00:27:56.238Z,99.99
2019-06-26T00:28:56.470Z,99.99
2019-06-26T00:29:56.702Z,99.99
2019-06-26T00:30:56.964Z,99.99
2019-06-26T00:31:57.192Z,99.99
2019-06-26T00:32:57.399Z,99.99
2019-06-26T00:33:57.633Z,99.99
2019-06-26T00:34:57.868Z,99.99
2019-06-26T00:35:58.096Z,99.99
2019-06-26T00:36:58.323Z,99.99
2019-06-26T00:37:58.570Z,99.99
2019-06-26T00:38:58.794Z,99.99
2019-06-26T00:39:59.026Z,99.99
2019-06-26T00:40:59.257Z,99.99
2019-06-26T00:41:59.490Z,99.99
2019-06-26T00:42:59.723Z,99.99
2019-06-26T00:43:59.953Z,99.99
2019-06-26T00:45:00.206Z,99.99
2019-06-26T00:46:00.415Z,99.99
2019-06-26T00:47:00.645Z,99.99
2019-06-26T00:48:00.879Z,99.99
2019-06-26T00:49:01.113Z,99.99
2019-06-26T00:50:01.443Z,99.99
2019-06-26T00:51:01.573Z,99.99
2019-06-26T00:52:01.811Z,99.99
2019-06-26T00:53:02.045Z,99.99
2019-06-26T00:54:02.260Z,99.99
2019-06-26T00:55:02.489Z,99.99
2019-06-26T00:56:02.719Z,99.99
2019-06-26T00:57:03.040Z,99.99
2019-06-26T00:58:03.277Z,99.99
2019-06-26T00:59:03.413Z,99.99
2019-06-26T01:00:03.683Z,99.99
2019-06-26T01:01:03.875Z,99.99
2019-06-26T01:02:04.107Z,99.99
2019-06-26T01:03:04.339Z,99.99
2019-06-26T01:04:04.570Z,99.99
2019-06-26T01:05:04.802Z,99.99
2019-06-26T01:06:05.036Z,99.99
2019-06-26T01:07:05.270Z,99.99
2019-06-26T01:08:05.499Z,99.99
2019-06-26T01:09:05.729Z,99.99
2019-06-26T01:10:05.963Z,99.99
2019-06-26T01:11:06.193Z,99.99
2019-06-26T01:12:06.422Z,99.99
2019-06-26T01:13:06.654Z,99.99
2019-06-26T01:14:06.894Z,99.99
2019-06-26T01:15:07.120Z,99.99
2019-06-26T01:16:07.350Z,99.99
2019-06-26T01:17:07.583Z,99.99
2019-06-26T01:18:07.816Z,99.99
2019-06-26T01:19:08.044Z,99.99
2019-06-26T01:20:08.276Z,99.99
2019-06-26T01:21:08.509Z,99.99
2019-06-26T01:22:08.740Z,99.99
2019-06-26T01:23:08.974Z,99.99
2019-06-26T01:24:09.204Z,99.99
2019-06-26T01:25:09.432Z,99.99
2019-06-26T01:26:09.664Z,99.99
2019-06-26T01:27:09.897Z,99.99
2019-06-26T01:28:10.132Z,99.99
2019-06-26T01:29:10.356Z,99.99
2019-06-26T01:30:10.590Z,99.99
2019-06-26T01:31:10.821Z,99.99
2019-06-26T01:32:11.054Z,99.99
2019-06-26T01:33:11.284Z,99.99
2019-06-26T01:34:11.517Z,99.99
2019-06-26T01:35:11.746Z,99.99
2019-06-26T01:36:11.975Z,99.99
2019-06-26T01:37:12.211Z,99.99
2019-06-26T01:38:12.442Z,99.99
2019-06-26T01:39:12.678Z,99.99
2019-06-26T01:40:12.903Z,99.99
2019-06-26T01:41:13.134Z,99.99
2019-06-26T01:42:13.372Z,99.99
2019-06-26T01:43:13.598Z,99.99
2019-06-26T01:44:15.471Z,99.99
2019-06-26T01:45:14.059Z,99.99
2019-06-26T01:46:14.295Z,99.99
2019-06-26T01:47:14.526Z,99.99
2019-06-26T01:48:14.754Z,99.99
2019-06-26T01:49:14.989Z,99.99
2019-06-26T01:50:15.220Z,99.99
2019-06-26T01:51:15.453Z,99.99
2019-06-26T01:52:15.717Z,99.99
2019-06-26T01:53:15.917Z,99.99
2019-06-26T01:54:16.146Z,99.99
2019-06-26T01:55:16.380Z,99.99
2019-06-26T01:56:16.611Z,99.99
2019-06-26T01:57:16.838Z,99.99
2019-06-26T01:58:17.075Z,99.99
2019-06-26T01:59:17.306Z,99.99
2019-06-26T02:00:17.535Z,99.99
2019-06-26T02:01:17.764Z,99.99
2019-06-26T02:02:17.995Z,99.99
2019-06-26T02:03:18.228Z,99.99
2019-06-26T02:04:18.459Z,99.99
2019-06-26T02:05:18.690Z,99.99
2019-06-26T02:06:18.920Z,99.99
2019-06-26T02:07:19.153Z,99.99
2019-06-26T02:08:19.382Z,99.99
2019-06-26T02:09:19.614Z,99.99
2019-06-26T02:10:19.845Z,99.99
2019-06-26T02:11:20.077Z,99.99
2019-06-26T02:12:20.315Z,99.99
2019-06-26T02:13:20.539Z,99.99
2019-06-26T02:14:30.632Z,99.99
2019-06-26T02:15:21.007Z,99.99
2019-06-26T02:16:21.237Z,99.99
2019-06-26T02:17:21.504Z,99.99
2019-06-26T02:18:21.700Z,99.99
2019-06-26T02:19:21.931Z,99.99
2019-06-26T02:20:22.158Z,99.99
2019-06-26T02:21:22.390Z,99.99
2019-06-26T02:22:22.622Z,99.99
2019-06-26T02:23:22.855Z,99.99
2019-06-26T02:24:23.088Z,99.99
2019-06-26T02:25:23.325Z,99.99
2019-06-26T02:26:23.554Z,99.99
2019-06-26T02:27:23.787Z,99.99
2019-06-26T02:28:24.021Z,99.99
2019-06-26T02:29:24.247Z,99.99
2019-06-26T02:30:24.482Z,99.99
2019-06-26T02:31:24.734Z,99.99
2019-06-26T02:32:24.945Z,99.99
2019-06-26T02:33:25.178Z,99.99
2019-06-26T02:34:25.410Z,99.99
2019-06-26T02:35:25.642Z,99.99
2019-06-26T02:36:25.870Z,99.99
2019-06-26T02:37:26.100Z,99.99
2019-06-26T02:38:26.336Z,99.99
2019-06-26T02:39:26.561Z,99.99
2019-06-26T02:40:26.800Z,99.99
2019-06-26T02:41:27.024Z,99.99
2019-06-26T02:42:27.256Z,99.99
2019-06-26T02:43:27.486Z,99.99
2019-06-26T02:44:27.719Z,99.99
2019-06-26T02:45:27.951Z,99.99
2019-06-26T02:46:28.185Z,99.99
2019-06-26T02:47:28.415Z,99.99
2019-06-26T02:48:28.668Z,99.99
2019-06-26T02:49:28.877Z,99.99
2019-06-26T02:50:29.108Z,99.99
2019-06-26T02:51:29.338Z,99.99
2019-06-26T02:52:29.567Z,99.99
2019-06-26T02:53:29.799Z,99.99
2019-06-26T02:54:30.031Z,99.99
2019-06-26T02:55:30.261Z,99.99
2019-06-26T02:56:30.497Z,99.99
2019-06-26T02:57:30.727Z,99.99
2019-06-26T02:58:30.975Z,99.99
2019-06-26T02:59:31.192Z,99.99
2019-06-26T03:00:31.422Z,99.99
2019-06-26T03:01:31.653Z,99.99
2019-06-26T03:02:31.885Z,99.99
2019-06-26T03:03:32.113Z,99.99
2019-06-26T03:04:32.353Z,99.99
2019-06-26T03:05:32.578Z,99.99
2019-06-26T03:06:32.807Z,99.99
2019-06-26T03:07:33.042Z,99.99
2019-06-26T03:08:33.272Z,99.99
2019-06-26T03:09:33.503Z,99.99
2019-06-26T03:10:33.737Z,99.99
2019-06-26T03:11:33.967Z,99.99
2019-06-26T03:12:34.201Z,99.99
2019-06-26T03:13:34.430Z,99.99
2019-06-26T03:14:34.663Z,99.99
2019-06-26T03:15:34.912Z,99.99
2019-06-26T03:16:35.144Z,99.99
2019-06-26T03:17:35.378Z,99.99
2019-06-26T03:18:35.613Z,99.99
2019-06-26T03:19:35.841Z,99.99
2019-06-26T03:20:36.073Z,99.99
2019-06-26T03:21:36.310Z,99.99
2019-06-26T03:22:36.538Z,99.99
2019-06-26T03:23:36.771Z,99.99
2019-06-26T03:24:37.002Z,99.99
2019-06-26T03:25:37.233Z,99.99
2019-06-26T03:26:37.464Z,99.99
2019-06-26T03:27:37.693Z,99.99
2019-06-26T03:28:37.926Z,99.99
2019-06-26T03:29:38.158Z,99.99
2019-06-26T03:30:38.390Z,99.99
2019-06-26T03:31:38.623Z,99.99
2019-06-26T03:32:38.898Z,99.99
2019-06-26T03:33:39.083Z,99.99
2019-06-26T03:34:39.313Z,99.99
2019-06-26T03:35:40.859Z,99.99
2019-06-26T03:36:39.778Z,99.99
2019-06-26T03:37:40.010Z,99.99
2019-06-26T03:38:40.246Z,99.99
2019-06-26T03:39:40.477Z,99.99
2019-06-26T03:40:40.743Z,99.99
2019-06-26T03:41:40.973Z,99.99
2019-06-26T03:42:41.205Z,99.99
2019-06-26T03:43:41.436Z,99.99
2019-06-26T03:44:41.671Z,99.99
2019-06-26T03:45:41.901Z,99.99
2019-06-26T03:46:42.134Z,99.99
2019-06-26T03:47:42.367Z,99.99
2019-06-26T03:48:42.598Z,99.99
2019-06-26T03:49:42.832Z,99.99
2019-06-26T03:50:43.061Z,99.99
2019-06-26T03:51:43.294Z,99.99
2019-06-26T03:52:43.532Z,99.99
2019-06-26T03:53:43.757Z,99.99
2019-06-26T03:54:43.989Z,99.99
2019-06-26T03:55:44.226Z,99.99
2019-06-26T03:56:44.456Z,99.99
2019-06-26T03:57:44.689Z,99.99
2019-06-26T03:58:44.930Z,99.99
2019-06-26T03:59:45.168Z,99.99
2019-06-26T04:00:45.400Z,99.99
2019-06-26T04:01:45.631Z,99.99
2019-06-26T04:02:45.863Z,99.99
2019-06-26T04:03:46.098Z,99.99
2019-06-26T04:04:46.344Z,99.99
2019-06-26T04:05:46.560Z,99.99
2019-06-26T04:06:46.843Z,99.99
2019-06-26T04:07:47.026Z,99.99
2019-06-26T04:08:47.258Z,99.80
2019-06-26T04:09:47.491Z,99.02
2019-06-26T04:10:47.730Z,98.20
2019-06-26T04:11:47.972Z,97.23
2019-06-26T04:12:48.196Z,97.03
2019-06-26T04:13:48.432Z,95.82
2019-06-26T04:14:48.668Z,94.70
2019-06-26T04:15:51.073Z,94.12
2019-06-26T04:16:49.132Z,92.08
2019-06-26T04:17:49.364Z,91.74
2019-06-26T04:18:49.599Z,89.70
2019-06-26T04:19:49.834Z,89.17
2019-06-26T04:20:50.067Z,87.61
2019-06-26T04:21:50.308Z,86.78
2019-06-26T04:22:50.537Z,85.22
2019-06-26T04:23:50.770Z,83.81
2019-06-26T04:24:51.005Z,82.50
2019-06-26T04:25:51.247Z,82.15
2019-06-26T04:26:51.476Z,81.12
2019-06-26T04:27:51.707Z,79.28
2019-06-26T04:28:51.956Z,79.12
2019-06-26T04:29:52.177Z,77.76
2019-06-26T04:30:52.415Z,77.76
2019-06-26T04:31:52.652Z,77.37
2019-06-26T04:32:52.887Z,78.69
2019-06-26T04:33:53.130Z,79.47
2019-06-26T04:34:54.555Z,79.57
2019-06-26T04:35:53.597Z,78.44
2019-06-26T04:36:53.978Z,76.78
2019-06-26T04:37:54.068Z,77.11
2019-06-26T04:38:54.306Z,76.34
2019-06-26T04:39:54.578Z,74.33
2019-06-26T04:40:54.782Z,74.37
2019-06-26T04:41:55.014Z,72.35
2019-06-26T04:42:55.252Z,70.43
2019-06-26T04:43:55.515Z,69.40
2019-06-26T04:44:55.735Z,68.23
2019-06-26T04:45:58.576Z,67.19
2019-06-26T04:46:56.205Z,65.39
2019-06-26T04:47:56.443Z,65.82
2019-06-26T04:48:56.678Z,65.30
2019-06-26T04:49:56.919Z,65.10
2019-06-26T04:50:57.157Z,64.15
2019-06-26T04:51:57.394Z,63.67
2019-06-26T04:52:57.634Z,63.67
2019-06-26T04:53:57.881Z,63.28
2019-06-26T04:54:58.108Z,62.92
2019-06-26T04:55:58.373Z,62.72
2019-06-26T04:56:58.593Z,61.47
2019-06-26T04:57:58.833Z,61.18
2019-06-26T04:58:59.072Z,61.28
2019-06-26T04:59:59.310Z,61.08
2019-06-26T05:00:59.564Z,61.28
2019-06-26T05:01:59.789Z,61.38
2019-06-26T05:03:00.036Z,62.06
2019-06-26T05:04:00.266Z,62.26
2019-06-26T05:05:00.506Z,61.67
2019-06-26T05:06:00.746Z,59.28
2019-06-26T05:07:00.987Z,59.64
2019-06-26T05:08:01.276Z,60.60
2019-06-26T05:09:01.459Z,61.93
2019-06-26T05:10:01.701Z,61.35
2019-06-26T05:11:01.942Z,61.08
2019-06-26T05:12:02.183Z,61.41
2019-06-26T05:13:02.417Z,60.13
2019-06-26T05:14:02.658Z,61.28
2019-06-26T05:15:02.899Z,61.02
2019-06-26T05:16:14.425Z,60.99
2019-06-26T05:17:03.437Z,61.35
2019-06-26T05:18:03.628Z,61.47
2019-06-26T05:19:03.870Z,61.64
2019-06-26T05:20:04.107Z,61.93
2019-06-26T05:21:04.348Z,61.83
2019-06-26T05:22:04.600Z,61.25
2019-06-26T05:23:04.840Z,61.41
2019-06-26T05:24:05.082Z,61.28
2019-06-26T05:25:05.327Z,61.18
2019-06-26T05:26:05.558Z,60.82
2019-06-26T05:27:05.799Z,58.33
2019-06-26T05:28:08.294Z,57.87
2019-06-26T05:29:06.280Z,56.13
2019-06-26T05:30:06.523Z,57.80
2019-06-26T05:31:06.765Z,56.32
2019-06-26T05:32:07.004Z,56.82
2019-06-26T05:33:07.244Z,55.44
2019-06-26T05:34:10.694Z,55.93
2019-06-26T05:35:07.753Z,56.49
2019-06-26T05:36:07.967Z,57.11
2019-06-26T05:37:08.211Z,56.06
2019-06-26T05:38:08.448Z,55.37
2019-06-26T05:39:08.714Z,55.18
2019-06-26T05:40:08.937Z,55.93
2019-06-26T05:41:09.173Z,54.12
2019-06-26T05:42:09.414Z,53.92
2019-06-26T05:43:09.655Z,54.29
2019-06-26T05:44:09.898Z,53.75
2019-06-26T05:45:10.139Z,53.14
2019-06-26T05:46:10.380Z,53.44
2019-06-26T05:47:10.619Z,54.41
2019-06-26T05:48:10.862Z,54.41
2019-06-26T05:49:11.104Z,54.81
2019-06-26T05:50:11.345Z,55.27
2019-06-26T05:51:11.588Z,55.37
2019-06-26T05:52:11.828Z,55.66
2019-06-26T05:53:12.069Z,54.71
2019-06-26T05:54:12.312Z,53.75
2019-06-26T05:55:12.553Z,53.88
2019-06-26T05:56:12.817Z,52.23
2019-06-26T05:57:13.041Z,51.54
2019-06-26T05:58:13.277Z,51.67
2019-06-26T05:59:13.528Z,51.18
2019-06-26T06:00:13.786Z,53.05
2019-06-26T06:01:14.005Z,51.50
2019-06-26T06:02:14.254Z,50.66
2019-06-26T06:03:14.494Z,49.79
2019-06-26T06:04:14.735Z,49.20
2019-06-26T06:05:14.992Z,49.20
2019-06-26T06:06:15.276Z,49.01
2019-06-26T06:07:15.459Z,50.46
2019-06-26T06:08:15.699Z,51.42
2019-06-26T06:09:15.940Z,50.66
2019-06-26T06:10:16.179Z,51.32
2019-06-26T06:11:16.450Z,50.68
2019-06-26T06:12:16.665Z,50.29
2019-06-26T06:13:16.908Z,49.90
2019-06-26T06:14:17.150Z,49.06
2019-06-26T06:15:17.396Z,50.63
2019-06-26T06:16:17.634Z,50.61
2019-06-26T06:17:17.889Z,51.69
2019-06-26T06:18:18.120Z,51.76
2019-06-26T06:19:18.369Z,51.79
2019-06-26T06:20:18.605Z,51.42
2019-06-26T06:21:18.845Z,49.77
2019-06-26T06:22:19.096Z,50.19
2019-06-26T06:23:19.338Z,49.10
2019-06-26T06:24:19.590Z,50.16
2019-06-26T06:25:19.822Z,50.66
2019-06-26T06:26:20.066Z,49.52
2019-06-26T06:27:20.310Z,48.81
2019-06-26T06:28:20.562Z,49.03
2019-06-26T06:29:20.797Z,48.83
2019-06-26T06:30:21.039Z,47.89
2019-06-26T06:31:21.282Z,47.32
2019-06-26T06:32:21.660Z,46.08
2019-06-26T06:33:21.770Z,44.62
2019-06-26T06:34:22.010Z,45.39
2019-06-26T06:35:22.254Z,45.23
2019-06-26T06:36:22.502Z,45.43
2019-06-26T06:37:22.741Z,44.67
2019-06-26T06:38:22.985Z,44.27
2019-06-26T06:39:23.229Z,44.67
2019-06-26T06:40:23.472Z,45.71
2019-06-26T06:41:23.712Z,45.71
2019-06-26T06:42:23.959Z,46.20
2019-06-26T06:43:24.198Z,45.36
2019-06-26T06:44:24.437Z,45.04
2019-06-26T06:45:24.678Z,44.92
2019-06-26T06:46:24.920Z,46.23
2019-06-26T06:47:25.166Z,44.96
2019-06-26T06:48:25.419Z,44.56
2019-06-26T06:49:25.658Z,44.59
2019-06-26T06:50:25.891Z,44.96
2019-06-26T06:51:26.136Z,45.43
2019-06-26T06:52:26.376Z,45.06
2019-06-26T06:53:26.617Z,44.78
2019-06-26T06:54:26.859Z,44.89
2019-06-26T06:55:27.101Z,44.37
2019-06-26T06:56:27.348Z,44.89
2019-06-26T06:57:27.610Z,44.60
2019-06-26T06:58:30.148Z,44.46
2019-06-26T06:59:28.078Z,44.96
2019-06-26T07:00:28.312Z,44.96
2019-06-26T07:01:28.581Z,45.34
2019-06-26T07:02:28.860Z,45.61
2019-06-26T07:03:29.044Z,46.80
2019-06-26T07:04:29.538Z,46.88
2019-06-26T07:05:29.523Z,46.97
2019-06-26T07:06:29.765Z,47.77
2019-06-26T07:07:30.012Z,48.33
2019-06-26T07:08:30.256Z,48.24
2019-06-26T07:09:30.500Z,48.28
2019-06-26T07:10:30.740Z,49.18
2019-06-26T07:11:30.985Z,48.96
2019-06-26T07:12:31.237Z,50.02
2019-06-26T07:13:31.463Z,53.52
2019-06-26T07:14:31.709Z,52.23
2019-06-26T07:15:31.951Z,52.73
2019-06-26T07:16:32.190Z,53.88
2019-06-26T07:17:32.432Z,52.40
2019-06-26T07:18:32.673Z,53.66
2019-06-26T07:19:32.915Z,55.08
2019-06-26T07:20:33.155Z,56.27
2019-06-26T07:21:33.403Z,56.16
2019-06-26T07:22:33.640Z,55.97
2019-06-26T07:23:33.881Z,57.03
2019-06-26T07:24:34.124Z,57.03
2019-06-26T07:25:34.365Z,58.28
2019-06-26T07:26:34.604Z,58.76
2019-06-26T07:27:34.841Z,58.57
2019-06-26T07:28:35.078Z,58.44
2019-06-26T07:29:35.320Z,59.62
2019-06-26T07:30:35.557Z,58.76
2019-06-26T07:31:38.462Z,59.16
2019-06-26T07:32:36.039Z,58.76
2019-06-26T07:33:36.285Z,59.72
2019-06-26T07:34:36.517Z,59.65
2019-06-26T07:35:36.758Z,61.03
2019-06-26T07:36:37.005Z,59.06
2019-06-26T07:37:37.247Z,58.80
2019-06-26T07:38:37.485Z,58.50
2019-06-26T07:39:37.718Z,58.30
2019-06-26T07:40:37.961Z,58.37
2019-06-26T07:41:38.198Z,58.01
2019-06-26T07:42:38.438Z,58.80
2019-06-26T07:43:38.680Z,59.78
2019-06-26T07:44:38.971Z,61.03
2019-06-26T07:45:39.160Z,60.05
2019-06-26T07:46:39.410Z,58.76
2019-06-26T07:47:43.474Z,58.96
2019-06-26T07:48:39.878Z,58.57
2019-06-26T07:49:40.117Z,57.71
2019-06-26T07:50:40.369Z,58.67
2019-06-26T07:51:40.691Z,61.29
2019-06-26T07:52:40.830Z,59.52
2019-06-26T07:53:41.069Z,60.90
2019-06-26T07:54:41.322Z,62.02
2019-06-26T07:55:41.549Z,62.60
2019-06-26T07:56:41.788Z,62.51
2019-06-26T07:57:42.096Z,61.85
2019-06-26T07:58:42.269Z,61.16
2019-06-26T07:59:42.513Z,61.19
2019-06-26T08:00:42.751Z,61.16
2019-06-26T08:01:42.987Z,61.10
2019-06-26T08:02:43.228Z,61.76
2019-06-26T08:03:43.465Z,61.78
2019-06-26T08:04:43.699Z,61.46
2019-06-26T08:05:43.945Z,62.54
2019-06-26T08:06:44.186Z,63.23
2019-06-26T08:07:44.422Z,62.54
2019-06-26T08:08:44.685Z,61.68
2019-06-26T08:09:44.905Z,60.21
2019-06-26T08:10:45.155Z,61.29
2019-06-26T08:11:45.381Z,61.19
2019-06-26T08:12:45.639Z,61.19
2019-06-26T08:13:45.857Z,61.88
2019-06-26T08:14:46.095Z,62.96
2019-06-26T08:15:46.331Z,62.90
2019-06-26T08:16:46.578Z,64.34
2019-06-26T08:17:59.799Z,63.45
2019-06-26T08:18:47.051Z,61.98
2019-06-26T08:19:47.286Z,62.47
2019-06-26T08:21:00.744Z,62.57
2019-06-26T08:21:47.761Z,63.26
2019-06-26T08:22:48.000Z,63.26
2019-06-26T08:23:48.236Z,63.98
2019-06-26T08:24:48.475Z,63.88
2019-06-26T08:25:48.713Z,62.57
2019-06-26T08:26:48.954Z,63.26
2019-06-26T08:27:49.188Z,62.96
2019-06-26T08:28:49.426Z,63.09
2019-06-26T08:29:49.668Z,62.57
2019-06-26T08:30:49.915Z,62.08
2019-06-26T08:31:50.149Z,63.45
2019-06-26T08:32:50.429Z,62.84
2019-06-26T08:33:50.638Z,63.45
2019-06-26T08:34:50.868Z,62.08
2019-06-26T08:35:51.107Z,63.26
2019-06-26T08:36:51.344Z,63.45
2019-06-26T08:38:05.690Z,63.26
2019-06-26T08:38:51.823Z,63.78
2019-06-26T08:39:52.064Z,64.07
2019-06-26T08:40:52.306Z,61.91
2019-06-26T08:41:52.553Z,62.82
2019-06-26T08:42:52.784Z,61.42
2019-06-26T08:43:53.025Z,61.81
2019-06-26T08:44:53.260Z,61.22
2019-06-26T08:45:53.501Z,61.13
2019-06-26T08:46:53.740Z,61.84
2019-06-26T08:47:54.020Z,62.99
2019-06-26T08:48:54.234Z,63.09
2019-06-26T08:49:54.457Z,62.11
2019-06-26T08:50:54.696Z,61.35
2019-06-26T08:51:54.936Z,63.32
2019-06-26T08:52:55.175Z,61.94
2019-06-26T08:53:55.417Z,61.94
2019-06-26T08:54:55.691Z,61.91
2019-06-26T08:55:55.935Z,61.91
2019-06-26T08:56:56.170Z,61.65
2019-06-26T08:57:56.406Z,63.42
2019-06-26T08:58:56.644Z,61.35
2019-06-26T08:59:56.889Z,61.25
2019-06-26T09:00:57.129Z,61.25
2019-06-26T09:01:57.377Z,60.20
2019-06-26T09:02:57.605Z,59.41
2019-06-26T09:03:57.844Z,60.10
2019-06-26T09:04:58.086Z,59.94
2019-06-26T09:05:58.325Z,60.06
2019-06-26T09:06:58.563Z,58.59
2019-06-26T09:07:58.810Z,57.40
2019-06-26T09:08:59.040Z,57.79
2019-06-26T09:09:59.279Z,57.11
2019-06-26T09:10:59.519Z,55.85
2019-06-26T09:11:59.766Z,56.32
2019-06-26T09:13:00.003Z,56.62
2019-06-26T09:14:00.250Z,56.02
2019-06-26T09:15:00.479Z,55.53
2019-06-26T09:16:00.720Z,55.73
2019-06-26T09:17:00.956Z,55.93
2019-06-26T09:18:01.196Z,57.60
2019-06-26T09:19:01.434Z,56.12
2019-06-26T09:20:01.743Z,55.66
2019-06-26T09:21:01.931Z,55.93
2019-06-26T09:22:02.154Z,55.46
2019-06-26T09:23:02.411Z,56.05
2019-06-26T09:24:02.639Z,55.66
2019-06-26T09:25:19.834Z,56.84
2019-06-26T09:26:03.122Z,57.92
2019-06-26T09:27:03.352Z,55.98
2019-06-26T09:28:03.594Z,55.39
2019-06-26T09:29:03.831Z,55.49
2019-06-26T09:30:04.069Z,55.16
2019-06-26T09:31:04.311Z,55.43
2019-06-26T09:32:04.551Z,55.36
2019-06-26T09:33:04.791Z,54.01
2019-06-26T09:34:05.027Z,53.49
2019-06-26T09:35:05.267Z,53.59
2019-06-26T09:36:06.951Z,53.69
2019-06-26T09:37:05.757Z,53.42
2019-06-26T09:38:05.984Z,55.19
2019-06-26T09:39:06.223Z,54.21
2019-06-26T09:40:06.624Z,54.03
2019-06-26T09:41:06.700Z,53.94
2019-06-26T09:42:06.942Z,54.65
2019-06-26T09:43:07.184Z,54.46
2019-06-26T09:44:07.423Z,54.46
2019-06-26T09:45:07.664Z,55.74
2019-06-26T09:46:07.903Z,54.19
2019-06-26T09:47:08.143Z,54.88
2019-06-26T09:48:08.390Z,53.59
2019-06-26T09:49:08.621Z,52.63
2019-06-26T09:50:08.866Z,52.24
2019-06-26T09:51:09.136Z,52.34
2019-06-26T09:52:09.341Z,52.31
2019-06-26T09:53:09.587Z,52.34
2019-06-26T09:54:09.833Z,53.42
2019-06-26T09:55:10.084Z,51.64
2019-06-26T09:56:10.307Z,51.64
2019-06-26T09:57:10.543Z,51.32
2019-06-26T09:58:13.148Z,51.52
2019-06-26T09:59:11.024Z,49.94
2019-06-26T10:00:11.264Z,50.04
2019-06-26T10:01:11.504Z,50.93
2019-06-26T10:02:11.739Z,51.32
2019-06-26T10:03:11.981Z,51.82
2019-06-26T10:04:12.222Z,50.26
2019-06-26T10:05:12.462Z,50.76
2019-06-26T10:06:12.702Z,50.76
2019-06-26T10:07:12.953Z,50.16
2019-06-26T10:08:13.182Z,50.76
2019-06-26T10:09:13.424Z,50.59
2019-06-26T10:10:13.685Z,51.18
2019-06-26T10:11:13.902Z,49.18
2019-06-26T10:12:14.145Z,47.79
2019-06-26T10:13:14.390Z,46.53
2019-06-26T10:14:14.625Z,44.93
2019-06-26T10:15:14.865Z,45.92
2019-06-26T10:16:15.104Z,47.69
2019-06-26T10:17:15.348Z,45.72
2019-06-26T10:18:15.580Z,46.61
2019-06-26T10:19:15.838Z,46.41
2019-06-26T10:20:16.061Z,46.00
2019-06-26T10:21:16.303Z,45.20
2019-06-26T10:22:16.541Z,46.51
2019-06-26T10:23:16.773Z,46.11
2019-06-26T10:24:17.011Z,45.72
2019-06-26T10:25:17.254Z,44.54
2019-06-26T10:26:17.493Z,44.93
2019-06-26T10:27:17.734Z,44.93
2019-06-26T10:28:17.977Z,44.71
2019-06-26T10:29:18.216Z,45.13
2019-06-26T10:30:18.486Z,46.41
2019-06-26T10:31:18.710Z,45.72
2019-06-26T10:32:18.937Z,45.89
2019-06-26T10:33:19.178Z,46.39
2019-06-26T10:34:19.471Z,45.50
2019-06-26T10:35:19.658Z,45.50
2019-06-26T10:36:19.899Z,46.66
2019-06-26T10:37:20.139Z,47.45
2019-06-26T10:38:20.415Z,46.76
2019-06-26T10:39:20.618Z,47.06
2019-06-26T10:40:20.855Z,46.86
2019-06-26T10:41:21.096Z,47.25
2019-06-26T10:42:21.337Z,45.70
2019-06-26T10:43:21.578Z,45.48
2019-06-26T10:44:21.819Z,46.78
2019-06-26T10:45:22.058Z,46.48
2019-06-26T10:46:22.323Z,46.88
2019-06-26T10:47:22.538Z,46.00
2019-06-26T10:48:22.777Z,45.67
2019-06-26T10:49:27.570Z,45.89
2019-06-26T10:50:23.306Z,45.70
2019-06-26T10:51:23.497Z,45.10
2019-06-26T10:52:23.735Z,45.40
2019-06-26T10:53:23.976Z,45.60
2019-06-26T10:54:24.220Z,45.89
2019-06-26T10:55:24.459Z,45.57
2019-06-26T10:56:28.297Z,45.57
2019-06-26T10:57:24.936Z,45.26
2019-06-26T10:58:25.185Z,46.04
2019-06-26T10:59:25.418Z,46.74
2019-06-26T11:00:25.663Z,47.43
2019-06-26T11:01:25.898Z,47.35
2019-06-26T11:02:26.148Z,47.45
2019-06-26T11:03:26.379Z,45.78
2019-06-26T11:04:26.620Z,46.47
2019-06-26T11:05:26.856Z,44.98
2019-06-26T11:06:27.106Z,46.88
2019-06-26T11:07:27.338Z,45.57
2019-06-26T11:08:27.577Z,45.97
2019-06-26T11:09:27.817Z,45.28
2019-06-26T11:10:28.058Z,45.67
2019-06-26T11:11:28.298Z,45.36
2019-06-26T11:12:28.537Z,45.18
2019-06-26T11:13:28.778Z,45.38
2019-06-26T11:14:29.018Z,46.76
2019-06-26T11:15:29.257Z,46.78
2019-06-26T11:16:29.505Z,45.08
2019-06-26T11:17:29.740Z,46.07
2019-06-26T11:18:29.976Z,44.89
2019-06-26T11:19:43.471Z,45.78
2019-06-26T11:20:30.460Z,45.08
2019-06-26T11:21:30.701Z,44.67
2019-06-26T11:22:30.938Z,47.92
2019-06-26T11:23:31.179Z,46.04
2019-06-26T11:24:31.421Z,45.43
2019-06-26T11:25:31.661Z,46.03
2019-06-26T11:26:31.901Z,45.16
2019-06-26T11:27:32.140Z,45.53
2019-06-26T11:28:32.381Z,46.81
2019-06-26T11:29:32.619Z,47.21
2019-06-26T11:30:32.859Z,47.41
2019-06-26T11:31:33.098Z,47.41
2019-06-26T11:32:33.336Z,47.70
2019-06-26T11:33:33.573Z,48.10
2019-06-26T11:34:33.803Z,48.51
2019-06-26T11:35:34.041Z,46.94
2019-06-26T11:36:34.279Z,46.15
2019-06-26T11:37:34.517Z,46.76
2019-06-26T11:38:34.760Z,46.26
2019-06-26T11:39:34.998Z,45.78
2019-06-26T11:40:35.238Z,44.79
2019-06-26T11:41:35.477Z,44.39
2019-06-26T11:42:35.716Z,46.59
2019-06-26T11:43:35.972Z,45.20
2019-06-26T11:44:36.197Z,46.19
2019-06-26T11:45:36.436Z,45.70
2019-06-26T11:46:37.097Z,46.09
2019-06-26T11:47:36.914Z,46.98
2019-06-26T11:48:37.173Z,46.00
2019-06-26T11:49:37.499Z,45.13
2019-06-26T11:50:37.634Z,45.62
2019-06-26T11:51:37.867Z,46.31
2019-06-26T11:52:38.106Z,45.23
2019-06-26T11:53:38.355Z,44.83
2019-06-26T11:54:38.595Z,44.46
2019-06-26T11:55:38.835Z,44.75
2019-06-26T11:56:39.085Z,45.13
2019-06-26T11:57:39.339Z,45.15
2019-06-26T11:58:39.554Z,44.83
2019-06-26T11:59:39.785Z,45.32
2019-06-26T12:00:41.649Z,44.34
2019-06-26T12:01:40.267Z,44.54
2019-06-26T12:02:40.511Z,45.13
2019-06-26T12:03:40.749Z,46.70
2019-06-26T12:04:40.986Z,44.83
2019-06-26T12:05:41.233Z,44.93
2019-06-26T12:06:41.468Z,46.31
2019-06-26T12:07:41.706Z,45.32
2019-06-26T12:08:41.945Z,45.82
2019-06-26T12:09:42.209Z,45.72
2019-06-26T12:10:42.420Z,45.42
2019-06-26T12:11:42.773Z,44.24
2019-06-26T12:12:42.904Z,44.14
2019-06-26T12:13:43.155Z,43.77
2019-06-26T12:14:43.380Z,44.83
2019-06-26T12:15:43.623Z,44.54
2019-06-26T12:16:43.867Z,45.42
2019-06-26T12:17:44.104Z,45.82
2019-06-26T12:18:44.343Z,43.84
2019-06-26T12:19:44.708Z,43.73
2019-06-26T12:20:44.823Z,43.80
2019-06-26T12:21:46.987Z,45.38
2019-06-26T12:22:45.346Z,43.41
2019-06-26T12:23:45.578Z,43.70
2019-06-26T12:24:45.816Z,44.79
2019-06-26T12:25:46.056Z,45.28
2019-06-26T12:26:46.299Z,45.87
2019-06-26T12:27:46.536Z,47.55
2019-06-26T12:28:46.777Z,47.25
2019-06-26T12:29:47.018Z,46.19
2019-06-26T12:30:47.280Z,45.40
2019-06-26T12:31:47.496Z,45.01
2019-06-26T12:33:02.342Z,45.10
2019-06-26T12:33:47.976Z,44.71
2019-06-26T12:34:48.235Z,44.83
2019-06-26T12:35:48.518Z,44.73
2019-06-26T12:36:48.758Z,45.03
2019-06-26T12:37:48.943Z,44.91
2019-06-26T12:38:49.232Z,44.42
2019-06-26T12:39:49.421Z,44.91
2019-06-26T12:40:49.661Z,44.79
2019-06-26T12:41:49.904Z,45.18
2019-06-26T12:42:50.146Z,46.47
2019-06-26T12:43:50.385Z,44.71
2019-06-26T12:44:50.620Z,44.91
2019-06-26T12:45:50.865Z,44.61
2019-06-26T12:46:51.101Z,44.81
2019-06-26T12:47:51.340Z,44.51
2019-06-26T12:48:51.583Z,43.73
2019-06-26T12:49:51.821Z,44.93
2019-06-26T12:50:52.063Z,44.42
2019-06-26T12:51:52.366Z,44.14
2019-06-26T12:52:52.543Z,43.74
2019-06-26T12:53:52.820Z,43.25
2019-06-26T12:54:53.026Z,43.74
2019-06-26T12:55:53.258Z,43.45